createdAt,value
2019-03-31T00:01:21.912Z,16.10
2019-03-31T00:05:27.670Z,16.20
2019-03-31T00:09:33.395Z,16.10
2019-03-31T00:13:41.715Z,16.00
2019-03-31T00:17:47.436Z,15.80
2019-03-31T00:21:53.143Z,15.80
2019-03-31T00:25:58.851Z,15.90
2019-03-31T00:30:05.353Z,15.90
2019-03-31T00:34:23.754Z,16.00
2019-03-31T00:38:29.461Z,15.90
2019-03-31T00:42:35.159Z,15.60
2019-03-31T00:46:40.954Z,15.60
2019-03-31T00:50:46.734Z,15.60
2019-03-31T00:54:52.417Z,15.60
2019-03-31T00:58:58.264Z,15.50
2019-03-31T01:03:04.345Z,15.50
2019-03-31T01:07:11.409Z,15.50
2019-03-31T01:11:21.037Z,15.50
2019-03-31T01:15:27.094Z,15.40
2019-03-31T01:19:33.032Z,15.30
2019-03-31T01:23:38.776Z,15.30
2019-03-31T01:27:46.211Z,15.40
2019-03-31T01:31:53.207Z,15.40
2019-03-31T01:35:58.961Z,15.40
2019-03-31T01:40:06.770Z,15.20
2019-03-31T01:44:12.769Z,15.20
2019-03-31T01:48:18.543Z,15.20
2019-03-31T01:52:24.229Z,15.10
2019-03-31T01:56:31.575Z,15.10
2019-03-31T02:00:38.984Z,15.00
2019-03-31T02:04:44.687Z,15.00
2019-03-31T02:08:50.380Z,14.90
2019-03-31T02:12:56.061Z,15.00
2019-03-31T02:17:01.934Z,14.90
2019-03-31T02:21:07.707Z,14.90
2019-03-31T02:25:13.507Z,14.90
2019-03-31T02:29:19.202Z,14.90
2019-03-31T02:33:24.895Z,14.90
2019-03-31T02:37:30.596Z,14.80
2019-03-31T02:41:36.373Z,14.70
2019-03-31T02:45:42.072Z,14.60
2019-03-31T02:49:47.921Z,14.60
2019-03-31T02:53:53.667Z,14.70
2019-03-31T02:58:00.803Z,14.60
2019-03-31T03:02:06.842Z,14.50
2019-03-31T03:06:15.661Z,14.50
2019-03-31T03:10:24.135Z,14.60
2019-03-31T03:14:34.430Z,14.70
2019-03-31T03:18:41.214Z,14.60
2019-03-31T03:22:46.907Z,14.40
2019-03-31T03:26:52.625Z,14.40
2019-03-31T03:30:58.486Z,14.40
2019-03-31T03:35:05.047Z,14.30
2019-03-31T03:39:10.755Z,14.30
2019-03-31T03:43:16.510Z,14.20
2019-03-31T03:47:22.212Z,14.30
2019-03-31T03:51:28.407Z,14.20
2019-03-31T03:55:34.079Z,14.10
2019-03-31T03:59:39.780Z,14.00
2019-03-31T04:03:45.598Z,14.10
2019-03-31T04:07:51.298Z,14.10
2019-03-31T04:11:57.006Z,14.10
2019-03-31T04:16:02.701Z,14.00
2019-03-31T04:20:08.613Z,14.00
2019-03-31T04:24:14.304Z,14.00
2019-03-31T04:28:20.162Z,14.00
2019-03-31T04:32:25.865Z,14.00
2019-03-31T04:36:31.548Z,14.10
2019-03-31T04:40:37.257Z,14.00
2019-03-31T04:44:42.970Z,14.10
2019-03-31T04:48:48.736Z,13.90
2019-03-31T04:52:54.434Z,13.70
2019-03-31T04:57:00.124Z,13.50
2019-03-31T05:01:05.934Z,13.50
2019-03-31T05:05:11.633Z,13.50
2019-03-31T05:09:17.321Z,13.60
2019-03-31T05:13:23.016Z,13.60
2019-03-31T05:17:28.767Z,13.60
2019-03-31T05:21:34.513Z,13.60
2019-03-31T05:25:40.207Z,13.70
2019-03-31T05:29:45.898Z,13.70
2019-03-31T05:33:51.600Z,13.70
2019-03-31T05:37:57.281Z,13.80
2019-03-31T05:42:02.982Z,13.80
2019-03-31T05:46:08.734Z,13.80
2019-03-31T05:50:14.528Z,13.80
2019-03-31T05:54:20.231Z,13.80
2019-03-31T05:58:25.950Z,14.00
2019-03-31T06:02:31.706Z,14.00
2019-03-31T06:06:37.401Z,14.10
2019-03-31T06:10:43.112Z,14.30
2019-03-31T06:14:48.805Z,14.20
2019-03-31T06:18:54.500Z,14.10
2019-03-31T06:23:00.220Z,14.20
2019-03-31T06:27:05.934Z,14.50
2019-03-31T06:36:17.124Z,15.10
2019-03-31T06:40:22.890Z,15.40
2019-03-31T06:44:28.586Z,15.50
2019-03-31T06:48:34.301Z,15.90
2019-03-31T06:52:40.101Z,16.40
2019-03-31T06:56:47.263Z,16.70
2019-03-31T07:00:53.963Z,17.10
2019-03-31T07:05:01.058Z,17.20
2019-03-31T07:09:08.215Z,17.40
2019-03-31T07:13:13.990Z,17.50
2019-03-31T07:17:19.677Z,17.60
2019-03-31T07:21:25.385Z,17.80
2019-03-31T07:25:31.082Z,18.10
2019-03-31T07:29:36.795Z,18.20
2019-03-31T07:33:42.496Z,18.50
2019-03-31T07:37:48.209Z,18.90
2019-03-31T07:41:54.022Z,19.30
2019-03-31T07:45:59.798Z,19.70
2019-03-31T07:50:11.511Z,20.00
2019-03-31T07:54:17.212Z,20.30
2019-03-31T07:58:22.957Z,20.80
2019-03-31T08:02:28.707Z,21.10
2019-03-31T08:06:34.421Z,21.30
2019-03-31T08:10:40.128Z,21.60
2019-03-31T08:14:48.696Z,22.00
2019-03-31T08:18:54.390Z,22.30
2019-03-31T08:23:00.213Z,22.80
2019-03-31T08:27:05.950Z,23.00
2019-03-31T08:31:11.697Z,23.10
2019-03-31T08:35:17.867Z,23.30
2019-03-31T08:39:23.557Z,23.80
2019-03-31T08:43:29.313Z,24.40
2019-03-31T08:47:35.013Z,25.20
2019-03-31T08:51:41.801Z,25.50
2019-03-31T08:55:47.523Z,25.70
2019-03-31T08:59:53.195Z,26.10
2019-03-31T09:03:59.065Z,26.50
2019-03-31T09:08:04.820Z,27.10
2019-03-31T09:12:10.610Z,27.60
2019-03-31T09:16:16.319Z,28.10
2019-03-31T09:20:22.329Z,28.70
2019-03-31T09:24:28.041Z,29.10
2019-03-31T09:28:34.832Z,29.60
2019-03-31T09:32:40.748Z,30.20
2019-03-31T09:36:46.499Z,30.80
2019-03-31T09:40:52.236Z,31.50
2019-03-31T09:44:57.976Z,32.50
2019-03-31T09:49:04.038Z,32.50
2019-03-31T09:53:09.746Z,32.70
2019-03-31T09:57:15.457Z,33.10
2019-03-31T10:01:21.228Z,33.40
2019-03-31T10:05:26.931Z,33.90
2019-03-31T10:09:33.341Z,34.30
2019-03-31T10:13:39.067Z,34.70
2019-03-31T10:17:44.804Z,35.10
2019-03-31T10:21:50.556Z,35.50
2019-03-31T10:25:56.267Z,35.90
2019-03-31T10:30:02.031Z,36.50
2019-03-31T10:34:07.921Z,37.00
2019-03-31T10:38:13.661Z,37.40
2019-03-31T10:42:20.931Z,37.80
2019-03-31T10:46:26.792Z,38.00
2019-03-31T10:50:32.566Z,38.20
2019-03-31T10:54:38.261Z,38.50
2019-03-31T10:58:43.947Z,38.90
2019-03-31T11:02:49.691Z,39.30
2019-03-31T11:06:59.518Z,39.50
2019-03-31T11:11:02.875Z,39.90
2019-03-31T11:15:09.094Z,40.60
2019-03-31T11:19:14.783Z,40.60
2019-03-31T11:23:22.115Z,40.80
2019-03-31T11:27:27.827Z,40.90
2019-03-31T11:31:33.565Z,41.20
2019-03-31T11:35:39.272Z,41.60
2019-03-31T11:39:45.342Z,41.90
2019-03-31T11:43:51.062Z,42.00
2019-03-31T11:47:56.850Z,42.10
2019-03-31T11:52:02.553Z,41.60
2019-03-31T11:56:08.250Z,41.00
2019-03-31T12:00:25.128Z,40.90
2019-03-31T12:04:31.782Z,40.80
2019-03-31T12:08:37.496Z,40.20
2019-03-31T12:12:43.334Z,39.40
2019-03-31T12:16:49.053Z,38.00
2019-03-31T12:20:55.729Z,36.60
2019-03-31T12:25:01.406Z,35.40
2019-03-31T12:29:07.096Z,33.80
2019-03-31T12:33:13.838Z,32.60
2019-03-31T12:37:19.541Z,33.80
2019-03-31T12:41:25.229Z,33.20
2019-03-31T12:45:31.006Z,33.80
2019-03-31T12:49:36.702Z,33.30
2019-03-31T12:53:42.403Z,32.00
2019-03-31T12:57:51.517Z,32.80
2019-03-31T13:01:55.587Z,32.90
2019-03-31T13:06:01.478Z,34.20
2019-03-31T13:10:07.752Z,35.30
2019-03-31T13:14:13.458Z,34.40
2019-03-31T13:18:19.212Z,34.00
2019-03-31T13:22:24.925Z,33.80
2019-03-31T13:26:30.625Z,34.20
2019-03-31T13:30:36.497Z,35.80
2019-03-31T13:34:42.199Z,36.60
2019-03-31T13:38:47.894Z,35.80
2019-03-31T13:42:53.617Z,36.60
2019-03-31T13:46:59.389Z,36.80
2019-03-31T13:51:05.175Z,37.10
2019-03-31T13:55:16.626Z,37.00
2019-03-31T13:59:22.330Z,37.10
2019-03-31T14:04:15.906Z,37.00
2019-03-31T14:08:26.089Z,36.90
2019-03-31T14:13:17.280Z,36.30
2019-03-31T14:17:24.602Z,36.20
2019-03-31T14:22:15.026Z,35.80
2019-03-31T14:26:20.743Z,35.40
2019-03-31T14:30:26.542Z,35.20
2019-03-31T14:34:32.248Z,35.20
2019-03-31T14:38:40.248Z,35.00
2019-03-31T14:43:18.568Z,34.90
2019-03-31T14:47:24.334Z,34.50
2019-03-31T14:51:30.038Z,34.10
2019-03-31T14:55:35.997Z,33.80
2019-03-31T14:59:41.797Z,33.00
2019-03-31T15:04:18.034Z,32.90
2019-03-31T15:08:23.726Z,32.60
2019-03-31T15:12:29.403Z,31.50
2019-03-31T15:16:35.126Z,29.10
2019-03-31T15:20:40.826Z,28.00
2019-03-31T15:24:46.518Z,28.40
2019-03-31T15:28:52.361Z,28.50
2019-03-31T15:32:58.085Z,28.50
2019-03-31T15:37:03.775Z,27.50
2019-03-31T15:41:21.362Z,26.70
2019-03-31T15:45:25.648Z,26.90
2019-03-31T15:49:31.394Z,26.90
2019-03-31T15:53:37.108Z,27.10
2019-03-31T15:57:44.554Z,27.30
2019-03-31T16:01:50.258Z,27.50
2019-03-31T16:05:55.975Z,27.30
2019-03-31T16:10:01.728Z,27.40
2019-03-31T16:14:17.801Z,26.90
2019-03-31T16:18:23.516Z,26.70
2019-03-31T16:22:29.204Z,26.50
2019-03-31T16:26:34.924Z,26.40
2019-03-31T16:30:40.696Z,26.30
2019-03-31T16:34:46.421Z,26.00
2019-03-31T16:38:52.128Z,25.70
2019-03-31T16:42:57.834Z,25.40
2019-03-31T16:47:03.561Z,25.20
2019-03-31T16:51:09.403Z,24.70
2019-03-31T16:55:15.346Z,24.40
2019-03-31T16:59:21.130Z,24.60
2019-03-31T17:03:26.820Z,24.20
2019-03-31T17:07:32.540Z,23.90
2019-03-31T17:11:38.284Z,23.70
2019-03-31T17:15:44.176Z,23.60
2019-03-31T17:19:49.885Z,23.50
2019-03-31T17:23:55.649Z,23.40
2019-03-31T17:28:01.422Z,23.60
2019-03-31T17:33:06.162Z,23.80
2019-03-31T17:37:12.553Z,24.70
2019-03-31T17:41:18.268Z,25.00
2019-03-31T17:45:23.978Z,25.00
2019-03-31T17:49:29.719Z,24.80
2019-03-31T17:53:35.410Z,24.70
2019-03-31T17:57:42.501Z,24.70
2019-03-31T18:01:48.777Z,24.60
2019-03-31T18:05:54.497Z,24.50
2019-03-31T18:10:00.389Z,24.30
2019-03-31T18:15:14.693Z,24.10
2019-03-31T18:19:20.370Z,24.20
2019-03-31T18:24:17.023Z,24.10
2019-03-31T18:28:22.795Z,24.10
2019-03-31T18:32:28.504Z,24.00
2019-03-31T18:36:52.075Z,23.50
2019-03-31T18:40:57.876Z,23.70
2019-03-31T18:45:18.847Z,23.80
2019-03-31T18:49:24.623Z,23.90
2019-03-31T18:54:15.021Z,23.80
2019-03-31T18:58:26.011Z,23.90
2019-03-31T19:02:34.583Z,23.70
2019-03-31T19:06:40.085Z,23.70
2019-03-31T19:11:15.555Z,23.60
2019-03-31T19:15:34.843Z,23.50
2019-03-31T19:19:50.796Z,23.60
2019-03-31T19:24:19.321Z,23.60
2019-03-31T19:28:29.406Z,23.40
2019-03-31T19:33:28.774Z,23.30
2019-03-31T19:37:36.287Z,23.20
2019-03-31T19:42:36.508Z,23.30
2019-03-31T19:47:16.621Z,23.00
2019-03-31T19:51:35.536Z,22.90
2019-03-31T19:55:42.108Z,23.00
2019-03-31T20:00:19.494Z,22.90
2019-03-31T20:04:26.917Z,22.90
2019-03-31T20:08:34.251Z,23.10
2019-03-31T20:13:15.688Z,22.90
2019-03-31T20:17:28.575Z,22.70
2019-03-31T20:21:50.713Z,23.00
2019-03-31T20:26:18.939Z,22.90
2019-03-31T20:30:44.164Z,22.90
2019-03-31T20:35:16.136Z,22.80
2019-03-31T20:39:23.461Z,22.90
2019-03-31T20:43:31.882Z,22.60
2019-03-31T20:47:37.585Z,22.40
2019-03-31T20:51:44.308Z,22.60
2019-03-31T20:55:49.968Z,22.70
2019-03-31T21:00:19.613Z,22.60
2019-03-31T21:04:25.479Z,22.30
2019-03-31T21:08:31.173Z,22.10
2019-03-31T21:12:36.917Z,22.40
2019-03-31T21:16:42.656Z,22.70
2019-03-31T21:21:15.246Z,22.70
2019-03-31T21:25:20.972Z,22.70
2019-03-31T21:29:26.691Z,22.20
2019-03-31T21:33:32.426Z,21.50
2019-03-31T21:37:38.197Z,22.00
2019-03-31T21:41:43.892Z,21.80
2019-03-31T21:46:16.633Z,21.60
2019-03-31T21:50:22.882Z,21.70
2019-03-31T21:54:28.608Z,21.80
2019-03-31T21:58:34.323Z,21.90
2019-03-31T22:02:40.225Z,22.10
2019-03-31T22:06:46.012Z,22.20
2019-03-31T22:10:51.724Z,22.10
2019-03-31T22:15:18.477Z,22.10
2019-03-31T22:19:24.174Z,21.50
2019-03-31T22:23:31.502Z,21.60
2019-03-31T23:15:15.184Z,19.50
2019-03-31T23:24:30.693Z,18.90
2019-03-31T23:28:38.023Z,18.90
2019-03-31T23:32:43.746Z,18.80
2019-03-31T23:36:49.452Z,18.50
2019-03-31T23:40:55.165Z,17.70
2019-03-31T23:45:00.909Z,17.40
2019-03-31T23:49:06.656Z,17.80
2019-03-31T23:53:12.377Z,17.40
2019-03-31T23:57:18.068Z,17.50
